sim
Sign-in with your pilot id or email,
or register
Callsign
Passwort

Schedule Details

Flight Number: OEO8727
Departure: Milan Malpensa Airport (LIMC) at 12:55
Arrival: Bremen Airport (EDDW) at 14:40

Weather Information
Getting current METAR information for LIMC 101750Z 02008KT CAVOK 26/17 Q1013 NOSIG
Getting current METAR information for EDDW 101750Z 29006KT 9999 FEW022 15/10 Q1016 NOSIG

Schedule Frequency

Route Map